createdAt,value
2022-12-24T00:01:06.584Z,23.00
2022-12-24T00:03:35.080Z,22.38
2022-12-24T00:06:13.614Z,22.98
2022-12-24T00:08:41.543Z,23.02
2022-12-24T00:11:09.191Z,23.70
2022-12-24T00:13:36.829Z,23.25
2022-12-24T00:16:04.850Z,22.75
2022-12-24T00:18:32.537Z,23.48
2022-12-24T00:20:59.983Z,23.30
2022-12-24T00:23:27.422Z,23.88
2022-12-24T00:25:54.942Z,22.60
2022-12-24T00:28:23.067Z,20.90
2022-12-24T00:30:50.492Z,25.70
2022-12-24T00:33:24.118Z,23.65
2022-12-24T00:35:53.266Z,21.98
2022-12-24T00:38:20.943Z,20.65
2022-12-24T00:40:48.416Z,17.10
2022-12-24T00:43:15.847Z,19.45
2022-12-24T00:45:43.307Z,17.70
2022-12-24T00:48:10.705Z,18.17
2022-12-24T00:50:38.115Z,19.30
2022-12-24T00:53:05.536Z,19.85
2022-12-24T00:55:33.009Z,21.42
2022-12-24T00:58:00.493Z,17.88
2022-12-24T01:00:27.899Z,19.58
2022-12-24T01:02:55.507Z,20.17
2022-12-24T01:05:23.339Z,23.75
2022-12-24T01:07:50.919Z,20.83
2022-12-24T01:10:20.325Z,23.08
2022-12-24T01:12:48.131Z,22.85
2022-12-24T01:15:16.304Z,22.20
2022-12-24T01:17:43.889Z,23.08
2022-12-24T01:20:15.488Z,22.05
2022-12-24T01:22:43.027Z,24.00
2022-12-24T01:25:10.995Z,25.00
2022-12-24T01:27:38.782Z,21.60
2022-12-24T01:30:08.594Z,20.80
2022-12-24T01:32:36.253Z,20.88
2022-12-24T01:35:04.054Z,21.20
2022-12-24T01:37:31.528Z,19.52
2022-12-24T01:40:17.397Z,19.40
2022-12-24T01:43:07.530Z,18.92
2022-12-24T01:45:37.832Z,19.50
2022-12-24T01:48:09.063Z,19.60
2022-12-24T01:50:36.494Z,19.05
2022-12-24T01:53:05.979Z,19.85
2022-12-24T01:55:33.361Z,20.30
2022-12-24T01:58:01.929Z,20.05
2022-12-24T02:00:29.437Z,19.83
2022-12-24T02:02:57.133Z,19.45
2022-12-24T02:05:49.293Z,20.08
2022-12-24T02:08:17.775Z,19.85
2022-12-24T02:10:46.754Z,18.35
2022-12-24T02:13:17.769Z,18.25
2022-12-24T02:18:23.118Z,19.27
2022-12-24T02:21:02.849Z,22.58
2022-12-24T02:23:39.340Z,27.33
2022-12-24T02:26:25.271Z,25.05
2022-12-24T02:28:58.385Z,26.38
2022-12-24T02:31:49.576Z,26.42
2022-12-24T02:36:59.891Z,25.33
2022-12-24T02:39:42.529Z,24.55
2022-12-24T02:42:13.157Z,24.02
2022-12-24T02:44:52.532Z,20.55
2022-12-24T02:47:24.450Z,21.83
2022-12-24T02:49:51.956Z,22.33
2022-12-24T02:52:43.212Z,19.65
2022-12-24T02:57:46.856Z,18.90
2022-12-24T03:00:18.393Z,18.08
2022-12-24T03:02:59.414Z,20.85
2022-12-24T03:05:44.286Z,26.85
2022-12-24T03:08:42.600Z,28.60
2022-12-24T03:11:13.501Z,24.88
2022-12-24T03:13:42.399Z,25.10
2022-12-24T03:16:14.756Z,25.60
2022-12-24T03:18:47.397Z,25.63
2022-12-24T03:21:20.462Z,29.17
2022-12-24T03:23:48.289Z,32.28
2022-12-24T03:26:18.951Z,27.27
2022-12-24T03:28:47.148Z,30.15
2022-12-24T03:31:15.669Z,27.98
2022-12-24T03:33:43.358Z,23.75
2022-12-24T03:36:11.500Z,20.92
2022-12-24T03:38:38.864Z,18.02
2022-12-24T03:41:06.819Z,18.42
2022-12-24T03:43:34.345Z,19.20
2022-12-24T03:46:08.387Z,20.13
2022-12-24T03:48:36.735Z,19.70
2022-12-24T03:51:04.618Z,22.45
2022-12-24T03:53:32.051Z,28.52
2022-12-24T03:55:59.526Z,25.70
2022-12-24T03:58:26.913Z,28.27
2022-12-24T04:00:54.572Z,25.08
2022-12-24T04:03:22.195Z,21.08
2022-12-24T04:06:03.329Z,23.92
2022-12-24T04:08:30.702Z,23.67
2022-12-24T04:10:58.112Z,27.15
2022-12-24T04:13:25.491Z,32.63
2022-12-24T04:16:07.934Z,24.30
2022-12-24T04:18:36.467Z,19.40
2022-12-24T04:21:04.001Z,19.50
2022-12-24T04:23:33.187Z,20.80
2022-12-24T04:26:01.765Z,23.70
2022-12-24T04:28:30.288Z,23.65
2022-12-24T04:31:01.775Z,22.92
2022-12-24T04:33:29.761Z,34.63
2022-12-24T04:36:01.515Z,26.52
2022-12-24T04:38:29.369Z,142.38
2022-12-24T04:41:06.804Z,166.77
2022-12-24T04:43:34.830Z,49.20
2022-12-24T04:46:15.078Z,26.67
2022-12-24T04:48:42.709Z,27.60
2022-12-24T04:51:10.484Z,25.48
2022-12-24T04:53:39.219Z,92.18
2022-12-24T04:56:31.302Z,61.00
2022-12-24T04:59:02.322Z,122.97
2022-12-24T05:03:59.685Z,47.80
2022-12-24T05:06:30.626Z,29.98
2022-12-24T05:08:59.459Z,34.33
2022-12-24T05:11:27.471Z,27.45
2022-12-24T05:13:55.088Z,32.25
2022-12-24T05:16:23.710Z,26.58
2022-12-24T05:18:52.201Z,20.55
2022-12-24T05:21:24.224Z,21.73
2022-12-24T05:24:18.086Z,57.53
2022-12-24T05:26:57.434Z,24.20
2022-12-24T05:29:24.997Z,37.05
2022-12-24T05:31:52.453Z,27.65
2022-12-24T05:34:19.815Z,29.20
2022-12-24T05:36:47.194Z,31.33
2022-12-24T05:39:18.692Z,31.13
2022-12-24T05:41:47.107Z,29.98
2022-12-24T05:44:16.358Z,25.67
2022-12-24T05:46:44.395Z,20.52
2022-12-24T05:49:12.345Z,20.90
2022-12-24T05:51:40.655Z,19.83
2022-12-24T05:54:08.197Z,18.40
2022-12-24T05:56:35.743Z,20.17
2022-12-24T05:59:03.343Z,21.08
2022-12-24T06:01:30.827Z,21.35
2022-12-24T06:03:58.437Z,21.00
2022-12-24T06:06:27.808Z,19.73
2022-12-24T06:08:56.093Z,19.92
2022-12-24T06:11:26.328Z,22.85
2022-12-24T06:13:54.643Z,23.88
2022-12-24T06:16:23.946Z,20.45
2022-12-24T06:18:51.822Z,23.25
2022-12-24T06:21:19.745Z,22.33
2022-12-24T06:23:47.840Z,22.08
2022-12-24T06:26:19.501Z,22.50
2022-12-24T06:28:48.527Z,32.83
2022-12-24T06:31:19.121Z,25.17
2022-12-24T06:33:46.744Z,27.77
2022-12-24T06:36:18.069Z,28.20
2022-12-24T06:38:47.028Z,29.52
2022-12-24T06:41:15.308Z,31.65
2022-12-24T06:43:47.692Z,25.75
2022-12-24T06:46:16.051Z,23.58
2022-12-24T06:48:45.017Z,25.65
2022-12-24T06:51:14.357Z,26.85
2022-12-24T06:53:42.102Z,29.70
2022-12-24T06:56:11.870Z,20.45
2022-12-24T06:58:40.846Z,20.65
2022-12-24T07:01:11.383Z,21.60
2022-12-24T07:03:39.388Z,23.27
2022-12-24T07:06:07.709Z,21.85
2022-12-24T07:08:36.531Z,23.10
2022-12-24T07:11:04.363Z,31.50
2022-12-24T07:13:33.284Z,23.55
2022-12-24T07:16:02.451Z,20.77
2022-12-24T07:18:30.421Z,23.00
2022-12-24T07:20:58.380Z,23.13
2022-12-24T07:23:26.119Z,26.40
2022-12-24T07:25:53.518Z,32.83
2022-12-24T07:28:25.691Z,24.55
2022-12-24T07:30:56.331Z,30.98
2022-12-24T07:33:24.872Z,31.77
2022-12-24T07:36:00.550Z,25.38
2022-12-24T07:38:28.788Z,21.40
2022-12-24T07:40:56.588Z,27.83
2022-12-24T07:43:24.247Z,21.90
2022-12-24T07:45:54.367Z,22.95
2022-12-24T07:48:21.711Z,24.40
2022-12-24T07:50:53.039Z,24.80
2022-12-24T07:53:21.164Z,25.33
2022-12-24T07:55:48.919Z,26.80
2022-12-24T07:58:16.462Z,26.10
2022-12-24T08:00:43.933Z,25.60
2022-12-24T08:03:18.190Z,25.38
2022-12-24T08:05:46.287Z,33.20
2022-12-24T08:08:13.981Z,32.28
2022-12-24T08:10:42.240Z,32.63
2022-12-24T08:13:09.680Z,30.17
2022-12-24T08:15:37.198Z,37.55
2022-12-24T08:18:04.768Z,37.38
2022-12-24T08:20:32.236Z,28.23
2022-12-24T08:22:59.718Z,28.92
2022-12-24T08:25:27.202Z,31.38
2022-12-24T08:27:54.643Z,45.70
2022-12-24T08:30:22.157Z,69.75
2022-12-24T08:32:49.724Z,31.58
2022-12-24T08:35:17.252Z,29.08
2022-12-24T08:37:44.581Z,27.92
2022-12-24T08:40:12.851Z,32.10
2022-12-24T08:42:40.275Z,30.98
2022-12-24T08:45:08.388Z,29.25
2022-12-24T08:47:35.789Z,26.90
2022-12-24T08:50:04.386Z,26.23
2022-12-24T08:52:31.764Z,28.05
2022-12-24T08:54:59.140Z,30.65
2022-12-24T08:57:26.636Z,22.15
2022-12-24T08:59:54.239Z,25.23
2022-12-24T09:02:21.957Z,24.80
2022-12-24T09:04:49.646Z,25.23
2022-12-24T09:07:17.108Z,24.30
2022-12-24T09:09:44.440Z,25.30
2022-12-24T09:12:11.842Z,26.88
2022-12-24T09:14:39.207Z,26.33
2022-12-24T09:17:06.698Z,27.42
2022-12-24T09:19:34.114Z,30.73
2022-12-24T09:22:01.526Z,24.35
2022-12-24T09:24:28.899Z,23.98
2022-12-24T09:26:58.067Z,22.65
2022-12-24T09:29:25.872Z,25.55
2022-12-24T09:31:55.362Z,27.73
2022-12-24T09:34:28.237Z,27.33
2022-12-24T09:36:57.752Z,25.58
2022-12-24T09:39:25.174Z,27.10
2022-12-24T09:42:04.161Z,26.52
2022-12-24T09:45:04.915Z,29.33
2022-12-24T09:47:48.865Z,27.75
2022-12-24T09:50:40.794Z,30.55
2022-12-24T09:53:25.745Z,28.83
2022-12-24T09:55:58.199Z,28.35
2022-12-24T09:58:39.906Z,26.65
2022-12-24T10:01:07.593Z,28.80
2022-12-24T10:03:35.125Z,30.27
2022-12-24T10:06:08.844Z,24.98
2022-12-24T10:08:50.441Z,25.40
2022-12-24T10:11:23.605Z,26.85
2022-12-24T10:14:18.005Z,27.45
2022-12-24T10:17:24.202Z,28.13
2022-12-24T10:20:32.865Z,26.60
2022-12-24T10:23:18.509Z,39.15
2022-12-24T10:26:04.665Z,26.35
2022-12-24T10:28:52.313Z,28.98
2022-12-24T10:31:26.829Z,30.13
2022-12-24T10:34:02.951Z,29.05
2022-12-24T10:36:31.354Z,34.70
2022-12-24T10:38:59.415Z,38.78
2022-12-24T10:41:28.304Z,35.88
2022-12-24T10:43:56.283Z,26.10
2022-12-24T10:46:31.661Z,26.70
2022-12-24T10:49:03.464Z,26.77
2022-12-24T10:52:18.560Z,27.52
2022-12-24T10:55:24.513Z,26.48
2022-12-24T10:58:20.961Z,28.63
2022-12-24T11:00:52.760Z,30.45
2022-12-24T11:03:33.583Z,34.97
2022-12-24T11:06:21.383Z,39.50
2022-12-24T11:08:48.877Z,30.67
2022-12-24T11:11:20.394Z,29.15
2022-12-24T11:13:50.855Z,31.45
2022-12-24T11:16:35.893Z,47.33
2022-12-24T11:19:06.483Z,54.60
2022-12-24T11:21:39.273Z,56.90
2022-12-24T11:24:12.630Z,50.08
2022-12-24T11:26:43.032Z,74.20
2022-12-24T11:29:22.125Z,45.90
2022-12-24T11:31:50.695Z,44.03
2022-12-24T11:34:27.883Z,97.72
2022-12-24T11:37:22.260Z,41.70
2022-12-24T11:39:59.985Z,44.78
2022-12-24T11:42:38.810Z,44.78
2022-12-24T11:45:16.166Z,36.10
2022-12-24T11:47:43.777Z,38.30
2022-12-24T11:50:24.649Z,70.80
2022-12-24T11:53:03.951Z,41.67
2022-12-24T11:55:50.887Z,39.40
2022-12-24T11:58:27.228Z,31.73
2022-12-24T12:01:24.251Z,39.92
2022-12-24T12:04:15.761Z,41.65
2022-12-24T12:06:50.482Z,37.35
2022-12-24T12:09:32.421Z,35.47
2022-12-24T12:12:09.667Z,34.65
2022-12-24T12:14:55.362Z,33.58
2022-12-24T12:17:48.068Z,29.13
2022-12-24T12:20:47.594Z,32.33
2022-12-24T12:23:17.984Z,34.70
2022-12-24T12:25:48.413Z,39.50
2022-12-24T12:28:32.967Z,36.70
2022-12-24T12:31:16.381Z,34.28
2022-12-24T12:33:47.460Z,37.92
2022-12-24T12:36:18.647Z,36.40
2022-12-24T12:41:50.414Z,36.28
2022-12-24T12:44:46.943Z,38.10
2022-12-24T12:47:42.252Z,38.58
2022-12-24T12:50:52.055Z,39.72
2022-12-24T12:53:40.884Z,48.47
2022-12-24T12:56:30.442Z,53.38
2022-12-24T12:59:08.409Z,42.75
2022-12-24T13:01:50.296Z,43.25
2022-12-24T13:04:31.983Z,43.53
2022-12-24T13:07:23.704Z,38.65
2022-12-24T13:09:59.990Z,38.65
2022-12-24T13:12:36.375Z,41.45
2022-12-24T13:15:12.427Z,41.63
2022-12-24T13:17:45.978Z,39.80
2022-12-24T13:20:26.070Z,36.88
2022-12-24T13:23:01.134Z,37.00
2022-12-24T13:25:41.975Z,41.13
2022-12-24T13:28:24.456Z,44.17
2022-12-24T13:30:53.422Z,43.50
2022-12-24T13:33:38.819Z,46.58
2022-12-24T13:36:15.281Z,46.00
2022-12-24T13:38:45.043Z,53.95
2022-12-24T13:41:39.467Z,46.75
2022-12-24T13:44:09.319Z,42.60
2022-12-24T13:47:00.252Z,43.13
2022-12-24T13:49:27.595Z,41.15
2022-12-24T13:52:08.934Z,41.58
2022-12-24T13:54:58.377Z,39.33
2022-12-24T13:57:37.351Z,41.17
2022-12-24T14:00:23.055Z,41.83
2022-12-24T14:03:16.173Z,46.47
2022-12-24T14:05:43.563Z,40.67
2022-12-24T14:08:24.780Z,43.22
2022-12-24T14:13:41.063Z,43.00
2022-12-24T14:16:41.816Z,44.13
2022-12-24T14:19:25.876Z,42.90
2022-12-24T14:21:59.285Z,45.28
2022-12-24T14:24:35.710Z,45.05
2022-12-24T14:27:32.476Z,45.08
2022-12-24T14:30:29.649Z,47.08
2022-12-24T14:32:57.554Z,46.83
2022-12-24T14:35:28.923Z,46.03
2022-12-24T14:38:04.378Z,49.17
2022-12-24T14:40:37.395Z,46.42
2022-12-24T14:43:19.106Z,48.17
2022-12-24T14:45:57.365Z,44.17
2022-12-24T14:48:34.625Z,46.85
2022-12-24T14:51:58.235Z,45.55
2022-12-24T14:54:37.718Z,44.92
2022-12-24T14:57:10.823Z,44.63
2022-12-24T14:59:49.599Z,45.10
2022-12-24T15:02:41.379Z,68.72
2022-12-24T15:05:13.436Z,75.72
2022-12-24T15:08:01.741Z,75.75
2022-12-24T15:10:34.083Z,78.00
2022-12-24T15:13:14.519Z,87.15
2022-12-24T15:15:51.918Z,81.20
2022-12-24T15:18:25.766Z,71.13
2022-12-24T15:21:01.795Z,61.15
2022-12-24T15:23:34.035Z,93.72
2022-12-24T15:26:24.673Z,62.87
2022-12-24T15:29:00.162Z,59.55
2022-12-24T15:31:30.841Z,59.78
2022-12-24T15:34:02.085Z,60.95
2022-12-24T15:36:37.319Z,64.20
2022-12-24T15:39:08.444Z,77.00
2022-12-24T15:44:40.921Z,85.13
2022-12-24T15:47:15.869Z,78.75
2022-12-24T15:49:48.341Z,65.85
2022-12-24T15:52:19.197Z,68.40
2022-12-24T15:54:53.685Z,72.93
2022-12-24T15:57:31.202Z,65.18
2022-12-24T16:00:01.050Z,61.75
2022-12-24T16:02:42.073Z,63.40
2022-12-24T16:08:13.381Z,63.80
2022-12-24T16:11:16.223Z,66.82
2022-12-24T16:13:51.601Z,67.00
2022-12-24T16:16:22.360Z,73.20
2022-12-24T16:18:55.422Z,81.82
2022-12-24T16:21:38.628Z,72.30
2022-12-24T16:24:06.487Z,100.00
2022-12-24T16:26:35.619Z,72.53
2022-12-24T16:29:03.199Z,76.93
2022-12-24T16:31:39.581Z,87.70
2022-12-24T16:34:07.053Z,80.88
2022-12-24T16:36:34.550Z,78.35
2022-12-24T16:39:20.641Z,87.82
2022-12-24T16:42:06.468Z,88.95
2022-12-24T16:44:33.881Z,101.25
2022-12-24T16:47:01.440Z,94.85
2022-12-24T16:49:29.318Z,82.38
2022-12-24T16:51:56.778Z,79.75
2022-12-24T16:54:24.667Z,75.78
2022-12-24T16:56:52.295Z,74.28
2022-12-24T16:59:24.858Z,76.15
2022-12-24T17:01:52.575Z,73.80
2022-12-24T17:04:20.348Z,77.13
2022-12-24T17:06:50.160Z,76.13
2022-12-24T17:09:18.014Z,77.25
2022-12-24T17:11:45.564Z,76.65
2022-12-24T17:14:19.691Z,74.60
2022-12-24T17:16:47.799Z,81.18
2022-12-24T17:19:15.307Z,87.35
2022-12-24T17:21:42.920Z,111.03
2022-12-24T17:24:10.444Z,110.03
2022-12-24T17:26:38.220Z,83.40
2022-12-24T17:29:05.819Z,69.15
2022-12-24T17:31:33.776Z,62.10
2022-12-24T17:34:01.429Z,56.85
2022-12-24T17:36:28.959Z,47.80
2022-12-24T17:38:56.419Z,63.75
2022-12-24T17:41:24.120Z,50.05
2022-12-24T17:43:51.615Z,50.80
2022-12-24T17:46:22.578Z,57.47
2022-12-24T17:51:22.454Z,57.00
2022-12-24T17:53:50.504Z,51.80
2022-12-24T17:56:18.160Z,48.67
2022-12-24T17:58:46.952Z,52.60
2022-12-24T18:01:17.412Z,67.45
2022-12-24T18:03:46.289Z,61.50
2022-12-24T18:06:14.999Z,53.88
2022-12-24T18:08:47.901Z,50.85
2022-12-24T18:11:23.300Z,49.30
2022-12-24T18:13:55.576Z,54.00
2022-12-24T18:16:37.394Z,53.58
2022-12-24T18:19:08.442Z,50.15
2022-12-24T18:21:35.879Z,46.83
2022-12-24T18:24:04.014Z,44.80
2022-12-24T18:26:31.735Z,58.90
2022-12-24T18:29:01.579Z,60.35
2022-12-24T18:31:29.976Z,63.33
2022-12-24T18:33:57.723Z,79.45
2022-12-24T18:36:25.471Z,61.25
2022-12-24T18:38:53.243Z,49.58
2022-12-24T18:41:24.139Z,58.53
2022-12-24T18:43:51.860Z,46.95
2022-12-24T18:46:23.725Z,45.83
2022-12-24T18:48:52.175Z,44.00
2022-12-24T18:51:22.473Z,47.47
2022-12-24T18:53:50.824Z,52.83
2022-12-24T18:56:21.288Z,52.45
2022-12-24T18:58:49.422Z,55.47
2022-12-24T19:01:23.129Z,52.35
2022-12-24T19:03:51.182Z,50.67
2022-12-24T19:06:21.817Z,53.38
2022-12-24T19:08:59.832Z,53.35
2022-12-24T19:11:31.384Z,52.67
2022-12-24T19:14:00.290Z,52.10
2022-12-24T19:16:30.156Z,52.80
2022-12-24T19:18:57.946Z,55.17
2022-12-24T19:21:25.821Z,53.25
2022-12-24T19:23:53.374Z,51.55
2022-12-24T19:26:21.688Z,53.42
2022-12-24T19:28:49.913Z,53.42
2022-12-24T19:31:20.239Z,53.58
2022-12-24T19:33:50.525Z,52.65
2022-12-24T19:36:22.048Z,56.33
2022-12-24T19:38:49.652Z,58.20
2022-12-24T19:41:20.634Z,58.78
2022-12-24T19:43:50.272Z,63.22
2022-12-24T19:46:20.047Z,65.82
2022-12-24T19:48:52.977Z,69.68
2022-12-24T19:51:21.569Z,72.07
2022-12-24T19:53:50.131Z,74.47
2022-12-24T19:56:19.778Z,71.60
2022-12-24T19:58:48.158Z,69.78
2022-12-24T20:01:21.449Z,72.90
2022-12-24T20:03:50.482Z,67.20
2022-12-24T20:06:21.260Z,72.07
2022-12-24T20:08:48.959Z,76.65
2022-12-24T20:11:19.548Z,75.80
2022-12-24T20:13:47.113Z,80.57
2022-12-24T20:16:21.046Z,81.50
2022-12-24T20:18:56.870Z,77.80
2022-12-24T20:21:25.028Z,79.22
2022-12-24T20:23:53.204Z,75.97
2022-12-24T20:26:23.778Z,73.47
2022-12-24T20:28:51.436Z,82.60
2022-12-24T20:31:24.278Z,74.43
2022-12-24T20:33:52.864Z,70.78
2022-12-24T20:36:23.497Z,65.43
2022-12-24T20:38:51.421Z,65.82
2022-12-24T20:41:21.029Z,69.20
2022-12-24T20:43:49.274Z,66.15
2022-12-24T20:46:18.715Z,64.00
2022-12-24T20:48:46.835Z,68.38
2022-12-24T20:51:23.708Z,60.13
2022-12-24T20:53:57.262Z,59.55
2022-12-24T20:56:26.024Z,57.10
2022-12-24T20:58:53.969Z,57.10
2022-12-24T21:01:24.900Z,56.45
2022-12-24T21:03:54.693Z,56.22
2022-12-24T21:06:23.681Z,54.92
2022-12-24T21:08:52.291Z,53.67
2022-12-24T21:11:39.087Z,48.63
2022-12-24T21:14:06.869Z,46.65
2022-12-24T21:16:36.285Z,45.63
2022-12-24T21:19:05.140Z,45.80
2022-12-24T21:21:33.049Z,46.22
2022-12-24T21:24:01.488Z,43.47
2022-12-24T21:26:29.435Z,42.90
2022-12-24T21:28:57.009Z,40.67
2022-12-24T21:31:24.624Z,47.63
2022-12-24T21:33:52.190Z,43.50
2022-12-24T21:36:20.400Z,47.70
2022-12-24T21:38:48.122Z,54.13
2022-12-24T21:41:18.620Z,51.47
2022-12-24T21:43:46.911Z,45.97
2022-12-24T21:46:22.017Z,45.13
2022-12-24T21:49:11.808Z,43.80
2022-12-24T21:51:39.839Z,42.95
2022-12-24T21:54:28.681Z,39.22
2022-12-24T21:57:20.533Z,37.92
2022-12-24T21:59:52.874Z,38.28
2022-12-24T22:02:22.990Z,36.47
2022-12-24T22:04:50.614Z,35.95
2022-12-24T22:07:43.532Z,35.20
2022-12-24T22:10:31.943Z,32.30
2022-12-24T22:13:00.533Z,30.48
2022-12-24T22:15:28.091Z,31.77
2022-12-24T22:17:55.713Z,31.73
2022-12-24T22:20:23.287Z,29.17
2022-12-24T22:22:50.793Z,28.60
2022-12-24T22:25:18.306Z,27.85
2022-12-24T22:27:45.772Z,27.42
2022-12-24T22:30:13.591Z,27.85
2022-12-24T22:32:41.016Z,27.88
2022-12-24T22:35:08.812Z,28.60
2022-12-24T22:37:36.516Z,28.80
2022-12-24T22:40:04.224Z,31.50
2022-12-24T22:42:35.284Z,31.33
2022-12-24T22:47:30.704Z,29.65
2022-12-24T22:49:59.334Z,29.60
2022-12-24T22:52:27.231Z,30.08
2022-12-24T22:54:54.642Z,31.27
2022-12-24T22:57:22.015Z,28.88
2022-12-24T22:59:49.519Z,29.17
2022-12-24T23:02:20.806Z,28.42
2022-12-24T23:04:53.325Z,25.08
2022-12-24T23:07:20.894Z,24.27
2022-12-24T23:09:48.469Z,25.73
2022-12-24T23:12:35.857Z,26.10
2022-12-24T23:15:03.780Z,24.17
2022-12-24T23:17:31.155Z,25.92
2022-12-24T23:19:58.624Z,25.27
2022-12-24T23:22:26.087Z,24.05
2022-12-24T23:24:53.405Z,24.58
2022-12-24T23:27:20.925Z,22.80
2022-12-24T23:29:48.458Z,23.65
2022-12-24T23:32:16.000Z,22.00
2022-12-24T23:34:43.521Z,23.42
2022-12-24T23:37:10.969Z,22.42
2022-12-24T23:39:38.363Z,23.23
2022-12-24T23:42:05.854Z,22.63
2022-12-24T23:44:33.282Z,24.05
2022-12-24T23:47:00.902Z,24.25
2022-12-24T23:49:28.512Z,25.38
2022-12-24T23:51:55.938Z,26.88
2022-12-24T23:54:23.364Z,26.70
2022-12-24T23:56:50.827Z,25.75
2022-12-24T23:59:18.253Z,26.42
